Cizur Mayor, Spain
Current Conditions -  °F | °C
As of 8:30 PM on Thursday 27 Nov 2014 (Local Time) from LEPP Reporting Station
Few Clouds Few Clouds  
Wind Chill: 55°   Ceiling: Unl
Heat Index: 55°   Visibility: 6mi
Dew Point: 46°   Wind: 26mph
Humidity: 72%   Direction: 130°SE
Pressure: 29.38"   Gusts: 40mph
Location:  42.79°N, 1.69°W
Report Text: LEPP 271930Z 13023G35KT 9999 FEW050 13/08 Q0995
Loading
Personal Weather Stations






























Interactive Weather Map New forecast layout! Learn more

10-Day Weather Forecast

Advertisements
Track Severe Weather on mobile